X  Chiuso Dati meteorologici dell'aviazione (METAR)     LIML Linate
Temperatura
16°C Temperatura
3°C Punto di rugiada
42% Umidità



Vento
5 KM/H
3 MPH
1 M/S
3 KTS



180°
Sud
Condizioni attuali

Chiaro Chiaro
Pressione 1022.92 (hPa) - 30.21 (inHg)
Visibilità 6.2 (miglio) - 10 (km)
Aeroporto
Aeroporto-code LIML

Posizione: Linate
Distanza: 100 (km)

Metar:
LIML 051750Z 18003KT CAVOK 16/03 Q1023 NOSIG

Ore: 04-05-2020 19:50 CEST